createdAt,value
2018-12-22T00:38:37.620Z,10.74
2018-12-22T00:39:52.839Z,10.70
2018-12-22T00:40:53.299Z,10.78
2018-12-22T00:41:54.880Z,10.74
2018-12-22T00:42:55.362Z,10.70
2018-12-22T00:43:56.047Z,10.71
2018-12-22T00:44:56.565Z,10.70
2018-12-22T00:45:57.166Z,10.73
2018-12-22T00:46:57.639Z,10.77
2018-12-22T00:48:00.257Z,10.70
2018-12-22T00:49:00.734Z,10.77
2018-12-22T00:50:01.395Z,10.74
2018-12-22T00:51:01.871Z,10.76
2018-12-22T00:52:02.437Z,10.66
2018-12-22T00:53:02.917Z,10.71
2018-12-22T00:54:11.251Z,10.73
2018-12-22T00:55:11.736Z,10.56
2018-12-22T00:56:27.269Z,10.58
2018-12-22T00:57:27.716Z,10.60
2018-12-22T00:58:35.237Z,10.66
2018-12-22T00:59:35.723Z,10.70
2018-12-22T01:00:37.303Z,10.66
2018-12-22T01:01:37.862Z,10.74
2018-12-22T01:02:38.438Z,10.73
2018-12-22T01:03:38.919Z,10.73
2018-12-22T01:04:39.588Z,10.71
2018-12-22T01:05:40.060Z,10.74
2018-12-22T01:06:47.289Z,10.66
2018-12-22T01:07:47.767Z,10.71
2018-12-22T01:08:48.415Z,10.77
2018-12-22T01:09:48.901Z,10.73
2018-12-22T01:10:49.567Z,10.74
2018-12-22T01:11:50.065Z,10.77
2018-12-22T01:12:50.699Z,10.76
2018-12-22T01:13:51.194Z,10.78
2018-12-22T01:14:52.758Z,10.73
2018-12-22T01:15:53.269Z,10.86
2018-12-22T01:16:54.923Z,10.76
2018-12-22T01:17:55.431Z,10.78
2018-12-22T01:18:57.086Z,10.84
2018-12-22T01:19:57.586Z,10.73
2018-12-22T01:20:58.227Z,10.73
2018-12-22T01:21:58.733Z,10.80
2018-12-22T01:23:00.385Z,10.73
2018-12-22T01:24:00.872Z,10.74
2018-12-22T01:25:01.534Z,10.84
2018-12-22T01:26:02.017Z,10.80
2018-12-22T01:27:02.666Z,10.73
2018-12-22T01:28:03.143Z,10.78
2018-12-22T01:29:03.825Z,10.81
2018-12-22T01:30:04.288Z,10.81
2018-12-22T01:31:06.893Z,10.76
2018-12-22T01:32:07.495Z,10.80
2018-12-22T01:33:07.982Z,10.83
2018-12-22T01:34:08.448Z,10.78
2018-12-22T01:35:09.077Z,10.73
2018-12-22T01:36:09.568Z,10.74
2018-12-22T01:44:30.848Z,10.73
2018-12-22T01:46:09.330Z,10.74
2018-12-22T01:47:09.841Z,10.70
2018-12-22T01:48:11.325Z,10.73
2018-12-22T01:49:11.809Z,10.78
2018-12-22T01:50:21.282Z,10.83
2018-12-22T01:51:21.769Z,10.80
2018-12-22T02:29:25.006Z,10.73
2018-12-22T02:30:25.518Z,10.74
2018-12-22T02:33:28.345Z,10.92
2018-12-22T02:34:28.842Z,10.96
2018-12-22T02:35:30.467Z,10.91
2018-12-22T02:36:30.966Z,10.91
2018-12-22T02:37:31.510Z,10.88
2018-12-22T02:38:31.990Z,10.77
2018-12-22T02:39:32.537Z,10.70
2018-12-22T02:40:33.057Z,10.76
2018-12-22T02:58:26.100Z,10.83
2018-12-22T02:59:26.578Z,10.84
2018-12-22T03:03:41.159Z,10.78
2018-12-22T03:04:41.574Z,10.86
2018-12-22T03:17:44.808Z,10.80
2018-12-22T03:18:46.310Z,10.78
2018-12-22T03:19:46.801Z,10.74
2018-12-22T03:20:47.351Z,10.81
2018-12-22T03:21:47.834Z,10.77
2018-12-22T03:22:48.388Z,10.73
2018-12-22T03:23:48.872Z,10.70
2018-12-22T03:24:49.424Z,10.71
2018-12-22T03:25:49.909Z,10.62
2018-12-22T03:26:51.492Z,10.66
2018-12-22T03:27:51.961Z,10.71
2018-12-22T03:28:52.521Z,10.59
2018-12-22T03:29:53.002Z,10.52
2018-12-22T03:30:53.559Z,10.55
2018-12-22T03:31:54.036Z,10.58
2018-12-22T03:32:54.599Z,10.59
2018-12-22T03:33:55.092Z,10.56
2018-12-22T03:34:55.634Z,10.60
2018-12-22T03:35:56.119Z,10.56
2018-12-22T03:36:56.669Z,10.62
2018-12-22T03:37:57.154Z,10.65
2018-12-22T03:38:57.708Z,10.58
2018-12-22T03:39:58.182Z,10.53
2018-12-22T03:40:59.767Z,10.53
2018-12-22T03:42:00.246Z,10.47
2018-12-22T04:09:14.242Z,10.55
2018-12-22T04:24:59.006Z,10.44
2018-12-22T04:30:11.205Z,10.55
2018-12-22T04:31:11.694Z,10.33
2018-12-22T04:32:12.199Z,10.37
2018-12-22T04:33:13.681Z,10.34
2018-12-22T04:34:14.180Z,10.26
2018-12-22T04:35:14.664Z,10.28
2018-12-22T04:36:15.139Z,10.34
2018-12-22T04:37:15.650Z,10.36
2018-12-22T04:38:16.136Z,10.30
2018-12-22T04:39:16.617Z,10.34
2018-12-22T04:40:17.093Z,10.40
2018-12-22T04:41:17.591Z,10.42
2018-12-22T04:42:18.067Z,10.47
2018-12-22T04:43:18.546Z,10.37
2018-12-22T04:44:19.031Z,10.40
2018-12-22T04:45:19.515Z,10.39
2018-12-22T04:46:19.997Z,10.37
2018-12-22T04:47:20.469Z,10.28
2018-12-22T04:48:20.969Z,10.36
2018-12-22T04:49:21.438Z,10.32
2018-12-22T04:50:23.716Z,10.34
2018-12-22T04:51:24.189Z,10.26
2018-12-22T04:53:00.233Z,10.33
2018-12-22T04:54:00.716Z,10.26
2018-12-22T05:00:01.858Z,10.25
2018-12-22T05:01:02.441Z,10.25
2018-12-22T05:02:02.929Z,10.26
2018-12-22T05:03:03.411Z,10.26
2018-12-22T05:04:04.933Z,10.39
2018-12-22T05:05:05.408Z,10.43
2018-12-22T05:06:06.982Z,10.34
2018-12-22T05:07:07.461Z,10.37
2018-12-22T05:08:08.022Z,10.32
2018-12-22T05:09:08.476Z,10.40
2018-12-22T05:10:08.965Z,10.42
2018-12-22T05:11:09.449Z,10.51
2018-12-22T05:12:09.934Z,10.52
2018-12-22T05:13:10.401Z,10.55
2018-12-22T05:14:10.901Z,10.56
2018-12-22T05:15:11.384Z,10.46
2018-12-22T05:16:12.029Z,10.52
2018-12-22T05:17:12.522Z,10.44
2018-12-22T05:18:12.992Z,10.55
2018-12-22T05:19:13.496Z,10.51
2018-12-22T05:20:15.485Z,10.42
2018-12-22T05:21:14.529Z,10.36
2018-12-22T05:22:15.013Z,10.42
2018-12-22T05:23:15.564Z,10.39
2018-12-22T05:24:16.042Z,10.33
2018-12-22T05:25:16.613Z,10.42
2018-12-22T05:26:17.105Z,10.34
2018-12-22T05:27:17.646Z,10.34
2018-12-22T05:28:18.132Z,10.32
2018-12-22T05:29:18.683Z,10.40
2018-12-22T05:30:19.259Z,10.36
2018-12-22T05:31:19.720Z,10.42
2018-12-22T05:32:20.205Z,10.36
2018-12-22T05:33:20.764Z,10.39
2018-12-22T05:34:21.245Z,10.43
2018-12-22T05:35:21.791Z,10.39
2018-12-22T05:36:22.280Z,10.47
2018-12-22T05:37:22.829Z,10.47
2018-12-22T05:38:23.311Z,10.51
2018-12-22T05:39:23.870Z,10.56
2018-12-22T05:40:24.381Z,10.56
2018-12-22T05:41:25.007Z,10.55
2018-12-22T05:42:25.379Z,10.55
2018-12-22T05:43:25.940Z,10.52
2018-12-22T05:44:26.420Z,10.42
2018-12-22T05:45:26.982Z,10.40
2018-12-22T05:46:27.459Z,10.26
2018-12-22T05:47:28.039Z,10.51
2018-12-22T05:48:28.518Z,10.51
2018-12-22T05:49:28.984Z,10.53
2018-12-22T05:50:29.581Z,10.56
2018-12-22T05:51:30.061Z,10.56
2018-12-22T05:52:30.643Z,10.60
2018-12-22T05:53:31.034Z,10.59
2018-12-22T05:54:31.511Z,10.59
2018-12-22T05:55:31.992Z,10.58
2018-12-22T05:56:32.479Z,10.58
2018-12-22T05:57:32.964Z,10.60
2018-12-22T05:58:33.451Z,10.60
2018-12-22T05:59:33.928Z,10.58
2018-12-22T06:00:34.406Z,10.59
2018-12-22T06:01:41.691Z,10.60
2018-12-22T06:02:42.164Z,10.55
2018-12-22T06:03:42.644Z,10.73
2018-12-22T06:04:44.210Z,10.56
2018-12-22T06:05:44.695Z,10.56
2018-12-22T06:06:45.195Z,10.56
2018-12-22T06:07:45.672Z,10.58
2018-12-22T06:08:47.220Z,10.60
2018-12-22T06:09:47.710Z,10.56
2018-12-22T06:10:48.203Z,10.65
2018-12-22T06:11:48.688Z,10.71
2018-12-22T06:12:49.172Z,10.80
2018-12-22T06:13:49.644Z,10.66
2018-12-22T06:14:50.226Z,10.77
2018-12-22T06:15:50.707Z,10.68
2018-12-22T06:16:51.284Z,10.71
2018-12-22T06:17:51.680Z,10.77
2018-12-22T06:18:52.173Z,10.73
2018-12-22T06:19:52.730Z,10.68
2018-12-22T06:20:53.139Z,10.66
2018-12-22T06:21:53.617Z,10.70
2018-12-22T06:22:54.116Z,10.73
2018-12-22T06:23:54.584Z,10.81
2018-12-22T06:24:55.077Z,10.83
2018-12-22T06:25:55.573Z,10.77
2018-12-22T06:26:56.149Z,10.70
2018-12-22T06:27:56.673Z,10.76
2018-12-22T06:28:57.159Z,10.68
2018-12-22T06:29:58.725Z,10.78
2018-12-22T06:30:59.226Z,10.80
2018-12-22T06:31:59.718Z,10.91
2018-12-22T06:33:00.223Z,10.81
2018-12-22T06:34:00.706Z,10.84
2018-12-22T06:35:01.185Z,10.73
2018-12-22T06:36:01.736Z,10.73
2018-12-22T06:37:02.245Z,10.68
2018-12-22T06:38:02.726Z,10.76
2018-12-22T06:39:03.304Z,10.71
2018-12-22T06:40:03.788Z,10.86
2018-12-22T06:41:04.272Z,10.77
2018-12-22T06:42:04.751Z,10.81
2018-12-22T06:43:05.221Z,10.78
2018-12-22T06:44:05.709Z,10.74
2018-12-22T06:45:06.201Z,10.77
2018-12-22T06:46:06.695Z,10.70
2018-12-22T06:47:07.207Z,10.68
2018-12-22T06:48:07.688Z,10.71
2018-12-22T06:49:08.239Z,10.77
2018-12-22T06:50:08.729Z,10.80
2018-12-22T06:51:09.279Z,10.83
2018-12-22T06:52:09.774Z,10.83
2018-12-22T06:53:10.312Z,10.74
2018-12-22T06:54:10.801Z,10.74
2018-12-22T06:55:11.279Z,10.76
2018-12-22T06:56:11.788Z,10.73
2018-12-22T06:57:12.296Z,10.73
2018-12-22T06:58:12.783Z,10.74
2018-12-22T06:59:13.255Z,10.73
2018-12-22T07:00:17.559Z,10.74
2018-12-22T07:01:14.334Z,10.80
2018-12-22T07:02:14.890Z,10.71
2018-12-22T07:03:15.415Z,10.73
2018-12-22T07:04:15.875Z,10.68
2018-12-22T07:05:16.350Z,10.71
2018-12-22T07:06:16.827Z,10.60
2018-12-22T07:07:17.339Z,10.68
2018-12-22T07:08:17.829Z,10.66
2018-12-22T07:09:18.373Z,10.74
2018-12-22T07:10:18.902Z,10.76
2018-12-22T07:11:19.369Z,10.78
2018-12-22T07:12:19.839Z,10.70
2018-12-22T07:13:20.323Z,10.68
2018-12-22T07:14:20.796Z,10.68
2018-12-22T07:15:21.293Z,10.73
2018-12-22T07:16:21.785Z,10.76
2018-12-22T07:17:22.262Z,10.70
2018-12-22T07:18:22.750Z,10.56
2018-12-22T07:19:23.252Z,10.59
2018-12-22T07:20:23.732Z,10.56
2018-12-22T07:21:24.216Z,10.51
2018-12-22T07:22:24.722Z,10.66
2018-12-22T07:23:25.231Z,10.60
2018-12-22T07:24:25.686Z,10.56
2018-12-22T07:25:26.169Z,10.58
2018-12-22T07:26:26.651Z,10.59
2018-12-22T07:27:27.127Z,10.59
2018-12-22T07:28:27.630Z,10.62
2018-12-22T07:29:28.123Z,10.58
2018-12-22T07:30:28.599Z,10.62
2018-12-22T07:31:29.097Z,10.47
2018-12-22T07:32:29.590Z,10.53
2018-12-22T07:33:30.087Z,10.55
2018-12-22T07:34:30.641Z,10.52
2018-12-22T07:35:31.109Z,10.58
2018-12-22T07:36:31.516Z,10.55
2018-12-22T07:37:32.000Z,10.53
2018-12-22T07:38:32.498Z,10.47
2018-12-22T07:39:33.004Z,10.47
2018-12-22T07:40:33.484Z,10.43
2018-12-22T07:41:33.982Z,10.43
2018-12-22T07:42:34.469Z,10.44
2018-12-22T07:43:34.963Z,10.43
2018-12-22T07:44:35.447Z,10.39
2018-12-22T07:45:35.929Z,10.40
2018-12-22T07:46:36.413Z,10.40
2018-12-22T07:47:36.898Z,10.43
2018-12-22T07:48:37.368Z,10.37
2018-12-22T07:49:37.870Z,10.46
2018-12-22T07:50:38.351Z,10.44
2018-12-22T07:51:38.831Z,10.42
2018-12-22T07:52:39.325Z,10.47
2018-12-22T07:53:39.848Z,10.55
2018-12-22T07:54:40.342Z,10.52
2018-12-22T07:55:40.824Z,10.46
2018-12-22T07:56:41.309Z,10.40
2018-12-22T07:57:41.797Z,10.53
2018-12-22T07:58:42.276Z,10.51
2018-12-22T07:59:42.810Z,10.55
2018-12-22T08:00:43.273Z,10.42
2018-12-22T08:01:43.744Z,10.52
2018-12-22T08:02:44.243Z,10.56
2018-12-22T08:03:44.716Z,10.42
2018-12-22T08:04:45.188Z,10.47
2018-12-22T08:05:45.676Z,10.43
2018-12-22T08:06:46.150Z,10.36
2018-12-22T08:07:46.644Z,10.42
2018-12-22T08:08:47.125Z,10.47
2018-12-22T08:09:47.611Z,10.47
2018-12-22T08:10:48.098Z,10.47
2018-12-22T08:11:48.666Z,10.42
2018-12-22T08:12:49.137Z,10.34
2018-12-22T08:13:49.635Z,10.28
2018-12-22T08:14:50.125Z,10.34
2018-12-22T08:15:50.687Z,10.37
2018-12-22T08:16:51.170Z,10.44
2018-12-22T08:17:51.667Z,10.39
2018-12-22T08:18:52.142Z,10.37
2018-12-22T08:19:52.621Z,10.44
2018-12-22T08:20:53.233Z,10.37
2018-12-22T08:21:53.703Z,10.47
2018-12-22T08:22:54.207Z,10.51
2018-12-22T08:23:54.768Z,10.47
2018-12-22T08:24:55.248Z,10.55
2018-12-22T08:25:55.804Z,10.46
2018-12-22T08:26:56.284Z,10.42
2018-12-22T08:28:03.712Z,10.52
2018-12-22T08:29:04.199Z,10.42
2018-12-22T08:30:04.688Z,10.47
2018-12-22T08:31:06.281Z,10.44
2018-12-22T08:32:06.780Z,10.46
2018-12-22T08:33:07.307Z,10.42
2018-12-22T08:34:07.788Z,10.39
2018-12-22T08:35:08.281Z,10.37
2018-12-22T08:36:08.769Z,10.47
2018-12-22T08:37:09.351Z,10.40
2018-12-22T08:38:09.844Z,10.43
2018-12-22T08:39:10.409Z,10.52
2018-12-22T08:40:10.896Z,10.42
2018-12-22T08:41:11.458Z,10.42
2018-12-22T08:42:11.955Z,10.59
2018-12-22T08:43:12.482Z,10.47
2018-12-22T08:44:13.007Z,10.58
2018-12-22T08:45:13.456Z,10.44
2018-12-22T08:46:13.956Z,10.51
2018-12-22T08:47:14.443Z,10.44
2018-12-22T08:48:14.924Z,10.43
2018-12-22T08:49:15.406Z,10.47
2018-12-22T08:50:15.885Z,10.51
2018-12-22T08:51:16.436Z,10.42
2018-12-22T08:52:16.918Z,10.43
2018-12-22T08:53:17.403Z,10.40
2018-12-22T08:54:17.906Z,10.36
2018-12-22T08:55:18.371Z,10.36
2018-12-22T08:56:18.867Z,10.37
2018-12-22T08:57:19.422Z,10.42
2018-12-22T08:58:19.905Z,10.32
2018-12-22T08:59:21.486Z,10.28
2018-12-22T09:00:21.980Z,10.28
2018-12-22T09:01:22.452Z,10.37
2018-12-22T09:02:23.744Z,10.33
2018-12-22T09:03:24.275Z,10.40
2018-12-22T09:04:24.777Z,10.34
2018-12-22T09:05:26.432Z,10.25
2018-12-22T09:06:26.915Z,10.39
2018-12-22T09:07:27.468Z,10.32
2018-12-22T09:08:27.960Z,10.33
2018-12-22T09:09:30.575Z,10.26
2018-12-22T09:10:31.043Z,10.26
2018-12-22T09:11:31.600Z,10.30
2018-12-22T09:12:32.086Z,10.28
2018-12-22T09:13:34.682Z,10.26
2018-12-22T09:14:35.179Z,10.33
2018-12-22T09:15:35.646Z,10.34
2018-12-22T09:16:36.149Z,10.25
2018-12-22T09:17:36.633Z,10.25
2018-12-22T09:18:37.166Z,10.25
2018-12-22T09:19:37.659Z,10.22
2018-12-22T09:20:38.193Z,10.26
2018-12-22T09:21:38.672Z,10.39
2018-12-22T09:22:39.178Z,10.32
2018-12-22T09:23:39.686Z,10.36
2018-12-22T09:24:40.133Z,10.42
2018-12-22T09:25:40.618Z,10.32
2018-12-22T09:26:41.101Z,10.34
2018-12-22T09:27:41.585Z,10.34
2018-12-22T09:28:42.270Z,10.42
2018-12-22T09:29:42.745Z,10.43
2018-12-22T09:30:43.283Z,10.40
2018-12-22T09:31:43.758Z,10.44
2018-12-22T09:32:44.252Z,10.46
2018-12-22T09:33:44.753Z,10.39
2018-12-22T09:34:45.250Z,10.55
2018-12-22T09:35:45.718Z,10.43
2018-12-22T09:36:47.216Z,10.43
2018-12-22T09:37:47.727Z,10.37
2018-12-22T09:38:48.206Z,10.43
2018-12-22T09:39:48.683Z,10.40
2018-12-22T09:40:49.182Z,10.53
2018-12-22T09:41:49.669Z,10.59
2018-12-22T09:42:50.159Z,10.55
2018-12-22T09:43:50.621Z,10.59
2018-12-22T09:44:51.107Z,10.58
2018-12-22T09:45:51.604Z,10.63
2018-12-22T09:46:52.082Z,10.65
2018-12-22T09:47:52.568Z,10.65
2018-12-22T09:48:53.049Z,10.77
2018-12-22T09:49:53.540Z,10.66
2018-12-22T09:50:54.019Z,10.77
2018-12-22T09:51:54.524Z,10.74
2018-12-22T09:52:55.008Z,10.74
2018-12-22T09:53:55.488Z,10.73
2018-12-22T09:54:55.992Z,10.77
2018-12-22T09:55:56.468Z,10.77
2018-12-22T09:56:56.961Z,10.63
2018-12-22T09:57:57.440Z,10.71
2018-12-22T09:58:57.932Z,10.78
2018-12-22T09:59:58.473Z,10.78
2018-12-22T10:00:58.937Z,10.78
2018-12-22T10:01:59.423Z,10.66
2018-12-22T10:02:59.918Z,10.65
2018-12-22T10:04:00.406Z,10.73
2018-12-22T10:05:00.900Z,10.59
2018-12-22T10:06:01.389Z,10.68
2018-12-22T10:07:01.871Z,10.71
2018-12-22T10:08:02.354Z,10.70
2018-12-22T10:09:02.828Z,10.76
2018-12-22T10:10:03.311Z,10.81
2018-12-22T10:11:03.783Z,10.81
2018-12-22T10:12:04.261Z,10.74
2018-12-22T10:13:04.747Z,10.73
2018-12-22T10:14:05.250Z,10.73
2018-12-22T10:15:05.739Z,10.73
2018-12-22T10:16:06.216Z,10.73
2018-12-22T10:17:06.705Z,10.74
2018-12-22T10:18:07.189Z,10.70
2018-12-22T10:19:07.679Z,10.78
2018-12-22T10:20:08.173Z,10.70
2018-12-22T10:21:08.645Z,10.80
2018-12-22T10:22:09.151Z,10.76
2018-12-22T10:23:09.618Z,10.83
2018-12-22T10:24:10.106Z,10.92
2018-12-22T10:25:10.595Z,10.92
2018-12-22T10:26:11.078Z,10.88
2018-12-22T10:27:11.555Z,10.88
2018-12-22T10:28:12.053Z,10.86
2018-12-22T10:29:12.536Z,10.88
2018-12-22T10:30:13.024Z,10.91
2018-12-22T10:31:17.955Z,10.83
2018-12-22T10:32:14.999Z,10.99
2018-12-22T10:33:15.490Z,10.94
2018-12-22T10:34:23.631Z,10.96
2018-12-22T10:35:24.115Z,10.96
2018-12-22T10:36:26.606Z,10.91
2018-12-22T10:37:27.127Z,10.92
2018-12-22T10:38:34.127Z,10.94
2018-12-22T10:39:34.926Z,11.01
2018-12-22T10:40:35.409Z,11.02
2018-12-22T10:41:35.895Z,11.01
2018-12-22T10:42:45.137Z,11.07
2018-12-22T10:43:45.631Z,11.03
2018-12-22T10:45:00.660Z,11.06
2018-12-22T10:46:01.147Z,11.03
2018-12-22T10:47:03.008Z,11.01
2018-12-22T10:48:03.288Z,11.06
2018-12-22T10:49:03.756Z,10.91
2018-12-22T10:50:04.242Z,11.01
2018-12-22T10:51:05.727Z,10.89
2018-12-22T10:52:06.204Z,10.92
2018-12-22T10:53:06.696Z,10.86
2018-12-22T10:54:08.032Z,10.89
2018-12-22T10:55:08.223Z,10.89
2018-12-22T10:56:08.709Z,10.88
2018-12-22T10:57:16.133Z,10.95
2018-12-22T10:58:16.610Z,10.76
2018-12-22T10:59:17.103Z,10.77
2018-12-22T11:00:17.583Z,10.83
2018-12-22T11:01:26.183Z,10.84
2018-12-22T11:02:18.550Z,10.84
2018-12-22T11:03:19.030Z,10.81
2018-12-22T11:04:20.535Z,10.91
2018-12-22T11:05:21.022Z,10.91
2018-12-22T11:06:21.525Z,10.83
2018-12-22T11:07:22.021Z,10.99
2018-12-22T11:08:22.481Z,10.91
2018-12-22T11:09:22.965Z,10.94
2018-12-22T11:10:23.454Z,10.95
2018-12-22T11:11:23.941Z,10.89
2018-12-22T11:12:24.432Z,10.94
2018-12-22T11:13:24.919Z,10.88
2018-12-22T11:14:25.504Z,10.80
2018-12-22T11:15:25.989Z,10.77
2018-12-22T11:16:26.468Z,10.88
2018-12-22T11:17:26.951Z,10.88
2018-12-22T11:18:27.435Z,11.03
2018-12-22T11:19:27.916Z,11.03
2018-12-22T11:20:28.404Z,11.02
2018-12-22T11:21:28.883Z,11.07
2018-12-22T11:22:29.376Z,11.02
2018-12-22T11:23:29.873Z,11.07
2018-12-22T11:24:30.349Z,11.02
2018-12-22T11:25:30.835Z,11.11
2018-12-22T11:26:31.315Z,11.13
2018-12-22T11:27:31.889Z,11.10
2018-12-22T11:28:32.315Z,11.20
2018-12-22T11:29:32.802Z,11.24
2018-12-22T11:30:33.299Z,11.28
2018-12-22T11:31:35.164Z,11.32
2018-12-22T11:32:34.275Z,11.41
2018-12-22T11:33:34.765Z,11.34
2018-12-22T11:34:35.243Z,11.44
2018-12-22T11:35:35.742Z,11.46
2018-12-22T11:36:36.211Z,11.53
2018-12-22T11:37:36.697Z,11.43
2018-12-22T11:38:37.195Z,11.41
2018-12-22T11:39:37.679Z,11.35
2018-12-22T11:40:38.160Z,11.41
2018-12-22T11:41:38.651Z,11.41
2018-12-22T11:42:47.395Z,11.32
2018-12-22T11:43:39.605Z,11.35
2018-12-22T11:44:40.102Z,11.25
2018-12-22T11:45:40.598Z,11.14
2018-12-22T11:46:41.086Z,11.07
2018-12-22T11:47:41.552Z,11.14
2018-12-22T11:48:42.052Z,11.13
2018-12-22T11:49:42.622Z,11.06
2018-12-22T11:50:43.011Z,11.07
2018-12-22T11:51:43.488Z,11.06
2018-12-22T11:52:43.975Z,10.92
2018-12-22T11:53:44.515Z,10.99
2018-12-22T11:54:44.939Z,10.94
2018-12-22T11:55:45.441Z,11.06
2018-12-22T11:56:45.925Z,11.06
2018-12-22T11:57:46.397Z,11.29
2018-12-22T11:58:46.899Z,11.49
2018-12-22T11:59:47.403Z,11.54
2018-12-22T12:00:47.877Z,11.57
2018-12-22T12:01:48.350Z,11.72
2018-12-22T12:02:48.843Z,11.72
2018-12-22T12:03:49.333Z,11.89
2018-12-22T12:04:49.817Z,12.15
2018-12-22T12:05:50.299Z,12.26
2018-12-22T12:06:50.790Z,12.27
2018-12-22T12:07:51.289Z,12.38
2018-12-22T12:08:51.775Z,12.39
2018-12-22T12:09:52.263Z,12.74
2018-12-22T12:10:52.738Z,12.70
2018-12-22T12:11:53.224Z,12.60
2018-12-22T12:12:53.708Z,12.39
2018-12-22T12:13:54.190Z,12.13
2018-12-22T12:14:54.685Z,12.19
2018-12-22T12:15:55.174Z,12.21
2018-12-22T12:16:55.669Z,12.37
2018-12-22T12:17:56.145Z,12.42
2018-12-22T12:18:56.706Z,12.51
2018-12-22T12:19:57.134Z,12.62
2018-12-22T12:20:57.611Z,12.62
2018-12-22T12:21:58.101Z,12.52
2018-12-22T12:22:58.593Z,12.49
2018-12-22T12:24:00.447Z,12.45
2018-12-22T12:24:59.571Z,12.51
2018-12-22T12:26:00.062Z,12.44
2018-12-22T12:27:00.541Z,12.30
2018-12-22T12:28:01.033Z,12.15
2018-12-22T12:29:01.532Z,12.20
2018-12-22T12:30:02.010Z,12.11
2018-12-22T12:31:02.582Z,12.08
2018-12-22T12:32:02.986Z,12.02
2018-12-22T12:33:03.462Z,12.01
2018-12-22T12:34:03.954Z,11.99
2018-12-22T12:35:04.431Z,11.93
2018-12-22T12:36:04.917Z,12.13
2018-12-22T12:37:05.404Z,12.05
2018-12-22T12:38:05.896Z,12.16
2018-12-22T12:39:06.444Z,12.16
2018-12-22T12:40:06.854Z,12.08
2018-12-22T12:41:07.360Z,12.05
2018-12-22T12:42:07.836Z,12.02
2018-12-22T12:43:08.323Z,12.15
2018-12-22T12:44:08.822Z,12.15
2018-12-22T12:45:09.309Z,12.09
2018-12-22T12:46:09.805Z,12.05
2018-12-22T12:47:10.286Z,11.93
2018-12-22T12:48:17.646Z,11.87
2018-12-22T12:49:18.141Z,11.82
2018-12-22T12:50:18.621Z,11.87
2018-12-22T12:51:19.111Z,11.85
2018-12-22T12:52:20.601Z,11.83
2018-12-22T12:53:21.098Z,11.68
2018-12-22T12:54:21.583Z,11.71
2018-12-22T12:55:22.066Z,11.72
2018-12-22T12:56:22.570Z,11.74
2018-12-22T12:57:23.055Z,11.68
2018-12-22T12:58:23.547Z,11.67
2018-12-22T12:59:24.639Z,11.67
2018-12-22T13:00:25.134Z,11.67
2018-12-22T13:01:25.652Z,11.61
2018-12-22T13:02:26.096Z,11.62
2018-12-22T13:03:26.570Z,11.74
2018-12-22T13:04:29.071Z,11.67
2018-12-22T13:05:29.581Z,11.78
2018-12-22T13:06:54.655Z,11.82
2018-12-22T13:07:55.149Z,11.97
2018-12-22T13:09:31.148Z,12.20
2018-12-22T13:10:31.633Z,12.15
2018-12-22T13:12:50.125Z,11.97
2018-12-22T13:13:59.158Z,11.99
2018-12-22T13:14:59.659Z,11.97
2018-12-22T13:16:00.255Z,11.82
2018-12-22T13:17:00.744Z,11.82
2018-12-22T13:18:01.241Z,11.87
2018-12-22T13:19:01.722Z,11.75
2018-12-22T13:20:02.202Z,11.77
2018-12-22T13:21:02.690Z,11.71
2018-12-22T13:22:03.171Z,11.65
2018-12-22T13:23:04.664Z,11.54
2018-12-22T13:24:05.155Z,11.52
2018-12-22T13:25:12.155Z,11.54
2018-12-22T13:26:36.586Z,11.54
2018-12-22T13:27:30.269Z,11.50
2018-12-22T13:28:32.764Z,11.47
2018-12-22T13:29:33.255Z,11.35
2018-12-22T13:30:40.652Z,11.34
2018-12-22T13:31:41.143Z,11.17
2018-12-22T14:37:02.400Z,11.09
2018-12-22T14:38:03.873Z,10.98
2018-12-22T14:39:04.354Z,11.09
2018-12-22T14:40:21.557Z,11.02
2018-12-22T14:41:22.052Z,10.89
2018-12-22T14:42:22.554Z,10.99
2018-12-22T14:43:23.028Z,10.99
2018-12-22T14:44:25.529Z,11.02
2018-12-22T14:45:26.013Z,10.92
2018-12-22T14:46:47.511Z,10.92
2018-12-22T14:47:48.023Z,11.01
2018-12-22T14:48:48.501Z,10.92
2018-12-22T14:49:48.991Z,10.89
2018-12-22T14:50:49.471Z,10.91
2018-12-22T14:51:49.968Z,10.91
2018-12-22T14:52:50.478Z,10.88
2018-12-22T14:53:52.957Z,10.95
2018-12-22T14:54:53.433Z,10.92
2018-12-22T14:55:54.930Z,10.86
2018-12-22T14:56:55.403Z,10.84
2018-12-22T14:57:55.896Z,10.89
2018-12-22T14:58:56.403Z,10.88
2018-12-22T14:59:56.899Z,11.02
2018-12-22T15:00:57.380Z,10.94
2018-12-22T15:02:05.563Z,10.89
2018-12-22T15:03:06.053Z,10.80
2018-12-22T15:04:06.533Z,10.68
2018-12-22T15:05:07.018Z,10.76
2018-12-22T15:06:23.060Z,10.53
2018-12-22T15:07:23.538Z,10.62
2018-12-22T15:08:30.616Z,10.63
2018-12-22T15:09:31.031Z,10.53
2018-12-22T15:10:33.531Z,10.55
2018-12-22T15:11:34.009Z,10.46
2018-12-22T16:20:03.502Z,10.06
2018-12-22T16:21:04.002Z,10.03
2018-12-22T16:22:12.125Z,10.01
2018-12-22T16:23:12.589Z,10.17
2018-12-22T16:25:23.535Z,10.03
2018-12-22T16:51:02.237Z,10.01
2018-12-22T16:52:02.761Z,10.06
2018-12-22T16:53:03.240Z,9.93
2018-12-22T16:54:03.722Z,9.97
2018-12-22T16:55:04.210Z,9.89
2018-12-22T16:56:04.694Z,10.00
2018-12-22T16:57:05.172Z,9.93
2018-12-22T16:58:05.768Z,10.00
2018-12-22T16:59:06.145Z,10.01
2018-12-22T17:00:06.616Z,9.97
2018-12-22T17:01:07.210Z,9.97
2018-12-22T17:02:07.729Z,9.96
2018-12-22T17:03:10.982Z,9.94
2018-12-22T17:04:37.507Z,9.99
2018-12-22T17:05:37.994Z,9.83
2018-12-22T17:07:02.451Z,9.88
2018-12-22T17:08:02.949Z,9.97
2018-12-22T17:09:03.545Z,9.88
2018-12-22T17:10:04.025Z,9.99
2018-12-22T17:11:05.610Z,9.96
2018-12-22T17:12:06.102Z,9.91
2018-12-22T17:13:06.645Z,9.97
2018-12-22T17:14:07.136Z,9.94
2018-12-22T17:15:07.683Z,9.96
2018-12-22T17:16:08.172Z,9.91
2018-12-22T17:17:10.762Z,9.94
2018-12-22T17:18:11.250Z,9.93
2018-12-22T17:19:20.506Z,9.93
2018-12-22T17:20:20.988Z,10.03
2018-12-22T17:21:22.569Z,9.93
2018-12-22T17:22:23.048Z,10.00
2018-12-22T17:23:24.641Z,9.94
2018-12-22T17:24:25.113Z,10.00
2018-12-22T17:25:25.675Z,10.06
2018-12-22T17:26:26.159Z,9.94
2018-12-22T17:27:28.760Z,9.93
2018-12-22T17:28:29.251Z,9.89
2018-12-22T17:29:31.841Z,9.93
2018-12-22T17:30:32.326Z,10.04
2018-12-22T17:31:48.565Z,10.00
2018-12-22T17:32:49.147Z,10.03
2018-12-22T17:33:57.572Z,10.07
2018-12-22T17:34:58.056Z,10.00
2018-12-22T17:35:58.547Z,9.99
2018-12-22T17:38:11.474Z,10.09
2018-12-22T17:39:12.053Z,9.97
2018-12-22T17:40:12.493Z,9.99
2018-12-22T17:41:12.941Z,10.01
2018-12-22T17:42:13.336Z,10.04
2018-12-22T17:43:13.777Z,10.01
2018-12-22T17:44:14.208Z,10.06
2018-12-22T17:45:14.635Z,9.93
2018-12-22T17:46:15.074Z,10.00
2018-12-22T18:42:01.104Z,9.64
2018-12-22T18:43:01.588Z,9.63
2018-12-22T18:44:02.072Z,9.63
2018-12-22T18:45:02.553Z,9.68
2018-12-22T18:46:03.034Z,9.67
2018-12-22T18:47:03.524Z,9.61
2018-12-22T18:48:04.010Z,9.68
2018-12-22T18:49:04.498Z,9.66
2018-12-22T18:50:05.082Z,9.70
2018-12-22T18:51:05.568Z,9.70
2018-12-22T18:52:06.044Z,9.67
2018-12-22T18:53:07.566Z,9.68
2018-12-22T18:54:09.038Z,9.70
2018-12-22T18:55:15.663Z,9.75
2018-12-22T18:56:16.142Z,9.68
2018-12-22T18:57:16.712Z,9.61
2018-12-22T18:58:17.185Z,9.57
2018-12-22T19:00:29.177Z,9.61
2018-12-22T19:01:29.733Z,9.67
2018-12-22T19:02:30.226Z,9.63
2018-12-22T19:03:32.814Z,9.75
2018-12-22T19:04:33.323Z,9.79
2018-12-22T19:05:56.853Z,9.61
2018-12-22T19:06:57.341Z,9.67
2018-12-22T19:18:08.888Z,9.70
2018-12-22T19:19:09.383Z,9.64
2018-12-22T19:22:03.260Z,9.73
2018-12-22T19:23:03.743Z,9.68
2018-12-22T19:25:58.189Z,9.76
2018-12-22T19:26:58.673Z,9.78
2018-12-22T19:29:52.397Z,9.76
2018-12-22T19:30:52.870Z,9.79
2018-12-22T19:33:53.483Z,9.79
2018-12-22T19:34:47.560Z,9.86
2018-12-22T19:37:42.692Z,9.83
2018-12-22T19:38:43.160Z,9.83
2018-12-22T19:41:38.336Z,9.83
2018-12-22T19:42:39.015Z,9.82
2018-12-22T19:45:34.358Z,9.88
2018-12-22T19:46:34.832Z,9.85
2018-12-22T19:49:28.670Z,9.88
2018-12-22T19:50:29.170Z,9.83
2018-12-22T19:51:29.658Z,9.82
2018-12-22T19:52:30.138Z,9.82
2018-12-22T19:53:30.625Z,9.82
2018-12-22T19:54:31.096Z,9.71
2018-12-22T19:55:31.627Z,9.71
2018-12-22T19:56:32.067Z,9.81
2018-12-22T19:57:32.553Z,9.70
2018-12-22T19:58:33.026Z,9.75
2018-12-22T19:59:33.511Z,9.85